Terminal Aerodrome Forecast
Issued by NWS Jackson, MS

Home | Current Version | Previous Version | Text Only | Print | Product List | Glossary On
Versions: 1 2 3 4 5 6 7 8 9 10 11 12 13 14 15 16 17
000
FTUS44 KJAN 181100
TAFHBG
TAF
KHBG 181129Z 1812/1912 05008KT 5SM RA BR BKN007 BKN020 OVC070
     FM181700 02011G16KT P6SM VCSH OVC015
     FM182100 01010G16KT P6SM VCSH OVC050
     FM190200 35003KT P6SM BKN100
     FM190800 34002KT 4SM BR SKC
     FM191000 00000KT 1 1/2SM BR SKC=

USA.gov is the U.S. government's official web portal to all federal, state and local government web resources and services.